sensor_id;sensor_type;location;lat;lon;timestamp;P1;durP1;ratioP1;P2;durP2;ratioP2
34212;SDS011;20477;51.390;8.102;2023-08-12T00:01:20;13.48;;;7.15;;
34212;SDS011;20477;51.390;8.102;2023-08-12T00:03:51;15.07;;;7.95;;
34212;SDS011;20477;51.390;8.102;2023-08-12T00:06:19;9.73;;;7.32;;
34212;SDS011;20477;51.390;8.102;2023-08-12T00:08:47;15.80;;;8.45;;
34212;SDS011;20477;51.390;8.102;2023-08-12T00:11:15;19.27;;;8.70;;
34212;SDS011;20477;51.390;8.102;2023-08-12T00:13:45;16.95;;;9.88;;
34212;SDS011;20477;51.390;8.102;2023-08-12T00:16:13;19.75;;;10.30;;
34212;SDS011;20477;51.390;8.102;2023-08-12T00:18:41;16.38;;;10.32;;
34212;SDS011;20477;51.390;8.102;2023-08-12T00:21:09;19.95;;;10.50;;
34212;SDS011;20477;51.390;8.102;2023-08-12T00:23:39;25.13;;;10.95;;
34212;SDS011;20477;51.390;8.102;2023-08-12T00:26:07;15.68;;;9.57;;
34212;SDS011;20477;51.390;8.102;2023-08-12T00:28:36;21.40;;;9.93;;
34212;SDS011;20477;51.390;8.102;2023-08-12T00:31:05;22.67;;;11.55;;
34212;SDS011;20477;51.390;8.102;2023-08-12T00:33:33;24.27;;;11.45;;
34212;SDS011;20477;51.390;8.102;2023-08-12T00:36:01;19.25;;;12.10;;
34212;SDS011;20477;51.390;8.102;2023-08-12T00:38:30;20.67;;;13.18;;
34212;SDS011;20477;51.390;8.102;2023-08-12T00:40:58;19.20;;;12.88;;
34212;SDS011;20477;51.390;8.102;2023-08-12T00:43:26;20.27;;;13.15;;
34212;SDS011;20477;51.390;8.102;2023-08-12T00:45:55;24.83;;;12.65;;
34212;SDS011;20477;51.390;8.102;2023-08-12T00:48:24;20.15;;;14.20;;
34212;SDS011;20477;51.390;8.102;2023-08-12T00:50:52;19.02;;;12.45;;
34212;SDS011;20477;51.390;8.102;2023-08-12T00:53:21;23.75;;;15.98;;
34212;SDS011;20477;51.390;8.102;2023-08-12T00:55:49;28.17;;;14.93;;
34212;SDS011;20477;51.390;8.102;2023-08-12T00:58:17;23.23;;;14.70;;
34212;SDS011;20477;51.390;8.102;2023-08-12T01:00:45;22.02;;;14.77;;
34212;SDS011;20477;51.390;8.102;2023-08-12T01:03:13;21.83;;;14.70;;
34212;SDS011;20477;51.390;8.102;2023-08-12T01:05:43;25.58;;;13.93;;
34212;SDS011;20477;51.390;8.102;2023-08-12T01:08:12;28.08;;;14.38;;
34212;SDS011;20477;51.390;8.102;2023-08-12T01:10:42;23.85;;;15.50;;
34212;SDS011;20477;51.390;8.102;2023-08-12T01:13:17;28.30;;;17.40;;
34212;SDS011;20477;51.390;8.102;2023-08-12T01:15:47;25.43;;;18.57;;
34212;SDS011;20477;51.390;8.102;2023-08-12T01:18:16;28.13;;;17.55;;
34212;SDS011;20477;51.390;8.102;2023-08-12T01:20:47;26.00;;;16.70;;
34212;SDS011;20477;51.390;8.102;2023-08-12T01:23:16;25.13;;;17.65;;
34212;SDS011;20477;51.390;8.102;2023-08-12T01:25:46;27.63;;;18.63;;
34212;SDS011;20477;51.390;8.102;2023-08-12T01:28:14;31.05;;;20.15;;
34212;SDS011;20477;51.390;8.102;2023-08-12T01:30:43;18.10;;;14.48;;
34212;SDS011;20477;51.390;8.102;2023-08-12T01:33:17;21.80;;;15.82;;
34212;SDS011;20477;51.390;8.102;2023-08-12T01:35:50;25.08;;;15.68;;
34212;SDS011;20477;51.390;8.102;2023-08-12T01:38:23;21.67;;;14.07;;
34212;SDS011;20477;51.390;8.102;2023-08-12T01:40:54;27.10;;;16.75;;
34212;SDS011;20477;51.390;8.102;2023-08-12T01:43:25;29.50;;;15.35;;
34212;SDS011;20477;51.390;8.102;2023-08-12T01:45:54;23.27;;;15.98;;
34212;SDS011;20477;51.390;8.102;2023-08-12T01:48:22;22.50;;;15.43;;
34212;SDS011;20477;51.390;8.102;2023-08-12T01:50:50;22.83;;;15.27;;
34212;SDS011;20477;51.390;8.102;2023-08-12T01:53:18;25.15;;;18.15;;
34212;SDS011;20477;51.390;8.102;2023-08-12T01:55:49;30.52;;;18.83;;
34212;SDS011;20477;51.390;8.102;2023-08-12T01:58:17;29.17;;;19.17;;
34212;SDS011;20477;51.390;8.102;2023-08-12T02:00:45;27.30;;;20.52;;
34212;SDS011;20477;51.390;8.102;2023-08-12T02:03:13;27.42;;;22.08;;
34212;SDS011;20477;51.390;8.102;2023-08-12T02:05:41;37.05;;;26.63;;
34212;SDS011;20477;51.390;8.102;2023-08-12T02:08:10;32.00;;;25.40;;
34212;SDS011;20477;51.390;8.102;2023-08-12T02:10:38;39.97;;;27.40;;
34212;SDS011;20477;51.390;8.102;2023-08-12T02:13:07;36.88;;;25.75;;
34212;SDS011;20477;51.390;8.102;2023-08-12T02:15:35;27.98;;;19.98;;
34212;SDS011;20477;51.390;8.102;2023-08-12T02:18:04;26.48;;;19.60;;
34212;SDS011;20477;51.390;8.102;2023-08-12T02:20:32;28.38;;;19.10;;
34212;SDS011;20477;51.390;8.102;2023-08-12T02:23:00;23.67;;;19.02;;
34212;SDS011;20477;51.390;8.102;2023-08-12T02:25:28;27.08;;;20.70;;
34212;SDS011;20477;51.390;8.102;2023-08-12T02:27:57;26.63;;;19.33;;
34212;SDS011;20477;51.390;8.102;2023-08-12T02:30:26;29.08;;;20.48;;
34212;SDS011;20477;51.390;8.102;2023-08-12T02:32:56;29.10;;;21.10;;
34212;SDS011;20477;51.390;8.102;2023-08-12T02:35:24;27.35;;;22.13;;
34212;SDS011;20477;51.390;8.102;2023-08-12T02:37:51;28.98;;;22.00;;
34212;SDS011;20477;51.390;8.102;2023-08-12T02:40:19;34.05;;;22.88;;
34212;SDS011;20477;51.390;8.102;2023-08-12T02:42:48;34.92;;;23.17;;
34212;SDS011;20477;51.390;8.102;2023-08-12T02:45:16;32.60;;;22.67;;
34212;SDS011;20477;51.390;8.102;2023-08-12T02:47:45;32.72;;;24.15;;
34212;SDS011;20477;51.390;8.102;2023-08-12T02:50:13;32.85;;;23.60;;
34212;SDS011;20477;51.390;8.102;2023-08-12T02:52:42;29.73;;;23.42;;
34212;SDS011;20477;51.390;8.102;2023-08-12T02:55:10;33.28;;;23.58;;
34212;SDS011;20477;51.390;8.102;2023-08-12T02:57:38;32.63;;;25.73;;
34212;SDS011;20477;51.390;8.102;2023-08-12T03:00:07;35.33;;;25.90;;
34212;SDS011;20477;51.390;8.102;2023-08-12T03:02:36;34.30;;;25.63;;
34212;SDS011;20477;51.390;8.102;2023-08-12T03:05:07;28.38;;;23.95;;
34212;SDS011;20477;51.390;8.102;2023-08-12T03:07:35;27.30;;;24.30;;
34212;SDS011;20477;51.390;8.102;2023-08-12T03:10:04;27.48;;;24.00;;
34212;SDS011;20477;51.390;8.102;2023-08-12T03:12:33;31.33;;;23.77;;
34212;SDS011;20477;51.390;8.102;2023-08-12T03:15:03;32.00;;;26.17;;
34212;SDS011;20477;51.390;8.102;2023-08-12T03:17:32;35.90;;;28.05;;
34212;SDS011;20477;51.390;8.102;2023-08-12T03:20:00;32.20;;;25.92;;
34212;SDS011;20477;51.390;8.102;2023-08-12T03:22:32;27.25;;;23.25;;
34212;SDS011;20477;51.390;8.102;2023-08-12T03:25:00;27.10;;;22.90;;
34212;SDS011;20477;51.390;8.102;2023-08-12T03:27:28;30.65;;;26.40;;
34212;SDS011;20477;51.390;8.102;2023-08-12T03:29:57;41.00;;;31.70;;
34212;SDS011;20477;51.390;8.102;2023-08-12T03:32:25;41.53;;;32.63;;
34212;SDS011;20477;51.390;8.102;2023-08-12T03:34:53;44.95;;;33.15;;
34212;SDS011;20477;51.390;8.102;2023-08-12T03:37:21;36.72;;;31.90;;
34212;SDS011;20477;51.390;8.102;2023-08-12T03:39:51;36.00;;;31.20;;
34212;SDS011;20477;51.390;8.102;2023-08-12T03:42:19;35.15;;;29.35;;
34212;SDS011;20477;51.390;8.102;2023-08-12T03:44:47;32.63;;;27.35;;
34212;SDS011;20477;51.390;8.102;2023-08-12T03:47:15;33.13;;;27.65;;
34212;SDS011;20477;51.390;8.102;2023-08-12T03:49:48;34.13;;;27.88;;
34212;SDS011;20477;51.390;8.102;2023-08-12T03:52:16;35.33;;;28.75;;
34212;SDS011;20477;51.390;8.102;2023-08-12T03:54:44;36.45;;;30.23;;
34212;SDS011;20477;51.390;8.102;2023-08-12T03:57:14;37.03;;;29.05;;
34212;SDS011;20477;51.390;8.102;2023-08-12T03:59:42;38.85;;;30.42;;
34212;SDS011;20477;51.390;8.102;2023-08-12T04:02:10;40.20;;;31.38;;
34212;SDS011;20477;51.390;8.102;2023-08-12T04:04:38;40.97;;;30.58;;
34212;SDS011;20477;51.390;8.102;2023-08-12T04:07:06;38.53;;;30.83;;
34212;SDS011;20477;51.390;8.102;2023-08-12T04:09:35;41.70;;;31.75;;
34212;SDS011;20477;51.390;8.102;2023-08-12T04:12:03;40.47;;;31.40;;
34212;SDS011;20477;51.390;8.102;2023-08-12T04:14:32;39.38;;;32.13;;
34212;SDS011;20477;51.390;8.102;2023-08-12T04:17:01;39.75;;;31.25;;
34212;SDS011;20477;51.390;8.102;2023-08-12T04:19:29;39.20;;;31.20;;
34212;SDS011;20477;51.390;8.102;2023-08-12T04:21:57;40.35;;;31.55;;
34212;SDS011;20477;51.390;8.102;2023-08-12T04:24:25;38.70;;;31.52;;
34212;SDS011;20477;51.390;8.102;2023-08-12T04:26:53;41.67;;;31.85;;
34212;SDS011;20477;51.390;8.102;2023-08-12T04:29:21;41.35;;;31.63;;
34212;SDS011;20477;51.390;8.102;2023-08-12T04:31:51;38.72;;;31.30;;
34212;SDS011;20477;51.390;8.102;2023-08-12T04:34:19;38.47;;;30.33;;
34212;SDS011;20477;51.390;8.102;2023-08-12T04:36:48;35.42;;;27.15;;
34212;SDS011;20477;51.390;8.102;2023-08-12T04:39:16;32.67;;;26.77;;
34212;SDS011;20477;51.390;8.102;2023-08-12T04:41:44;27.27;;;22.20;;
34212;SDS011;20477;51.390;8.102;2023-08-12T04:44:13;30.80;;;22.48;;
34212;SDS011;20477;51.390;8.102;2023-08-12T04:46:41;25.40;;;22.15;;
34212;SDS011;20477;51.390;8.102;2023-08-12T04:49:10;28.08;;;23.55;;
34212;SDS011;20477;51.390;8.102;2023-08-12T04:51:38;24.33;;;21.73;;
34212;SDS011;20477;51.390;8.102;2023-08-12T04:54:06;20.40;;;18.00;;
34212;SDS011;20477;51.390;8.102;2023-08-12T04:56:35;20.95;;;18.05;;
34212;SDS011;20477;51.390;8.102;2023-08-12T04:59:03;23.30;;;20.50;;
34212;SDS011;20477;51.390;8.102;2023-08-12T05:01:31;26.58;;;21.83;;
34212;SDS011;20477;51.390;8.102;2023-08-12T05:03:59;25.75;;;20.80;;
34212;SDS011;20477;51.390;8.102;2023-08-12T05:06:29;20.75;;;18.48;;
34212;SDS011;20477;51.390;8.102;2023-08-12T05:08:57;22.90;;;20.45;;
34212;SDS011;20477;51.390;8.102;2023-08-12T05:11:25;23.25;;;20.73;;
34212;SDS011;20477;51.390;8.102;2023-08-12T05:13:53;26.65;;;21.90;;
34212;SDS011;20477;51.390;8.102;2023-08-12T05:16:21;27.35;;;23.10;;
34212;SDS011;20477;51.390;8.102;2023-08-12T05:18:50;27.38;;;21.48;;
34212;SDS011;20477;51.390;8.102;2023-08-12T05:21:18;25.15;;;22.00;;
34212;SDS011;20477;51.390;8.102;2023-08-12T05:23:47;23.52;;;20.70;;
34212;SDS011;20477;51.390;8.102;2023-08-12T05:26:15;23.60;;;20.73;;
34212;SDS011;20477;51.390;8.102;2023-08-12T05:28:44;22.48;;;20.10;;
34212;SDS011;20477;51.390;8.102;2023-08-12T05:31:12;21.70;;;19.50;;
34212;SDS011;20477;51.390;8.102;2023-08-12T05:33:40;22.13;;;19.83;;
34212;SDS011;20477;51.390;8.102;2023-08-12T05:36:08;22.55;;;20.13;;
34212;SDS011;20477;51.390;8.102;2023-08-12T05:38:36;26.25;;;23.33;;
34212;SDS011;20477;51.390;8.102;2023-08-12T05:41:06;23.88;;;21.33;;
34212;SDS011;20477;51.390;8.102;2023-08-12T05:43:34;25.17;;;22.35;;
34212;SDS011;20477;51.390;8.102;2023-08-12T05:46:02;23.58;;;21.13;;
34212;SDS011;20477;51.390;8.102;2023-08-12T05:48:31;29.65;;;22.02;;
34212;SDS011;20477;51.390;8.102;2023-08-12T05:50:59;23.33;;;20.83;;
34212;SDS011;20477;51.390;8.102;2023-08-12T05:53:27;22.15;;;19.77;;
34212;SDS011;20477;51.390;8.102;2023-08-12T05:55:55;21.45;;;19.17;;
34212;SDS011;20477;51.390;8.102;2023-08-12T05:58:25;23.52;;;20.80;;
34212;SDS011;20477;51.390;8.102;2023-08-12T06:00:53;24.00;;;21.50;;
34212;SDS011;20477;51.390;8.102;2023-08-12T06:03:21;24.48;;;21.58;;
34212;SDS011;20477;51.390;8.102;2023-08-12T06:05:49;23.88;;;21.42;;
34212;SDS011;20477;51.390;8.102;2023-08-12T06:08:17;23.15;;;20.70;;
34212;SDS011;20477;51.390;8.102;2023-08-12T06:10:45;25.70;;;20.45;;
34212;SDS011;20477;51.390;8.102;2023-08-12T06:13:14;22.65;;;20.20;;
34212;SDS011;20477;51.390;8.102;2023-08-12T06:15:43;23.60;;;19.15;;
34212;SDS011;20477;51.390;8.102;2023-08-12T06:18:11;21.17;;;18.95;;
34212;SDS011;20477;51.390;8.102;2023-08-12T06:20:40;23.95;;;18.80;;
34212;SDS011;20477;51.390;8.102;2023-08-12T06:23:08;21.65;;;19.00;;
34212;SDS011;20477;51.390;8.102;2023-08-12T06:25:36;21.65;;;19.23;;
34212;SDS011;20477;51.390;8.102;2023-08-12T06:28:04;19.33;;;17.23;;
34212;SDS011;20477;51.390;8.102;2023-08-12T06:30:34;20.35;;;17.98;;
34212;SDS011;20477;51.390;8.102;2023-08-12T06:33:04;25.95;;;17.00;;
34212;SDS011;20477;51.390;8.102;2023-08-12T06:35:32;20.45;;;15.77;;
34212;SDS011;20477;51.390;8.102;2023-08-12T06:38:00;22.55;;;16.35;;
34212;SDS011;20477;51.390;8.102;2023-08-12T06:40:29;16.13;;;14.38;;
34212;SDS011;20477;51.390;8.102;2023-08-12T06:42:57;15.95;;;14.25;;
34212;SDS011;20477;51.390;8.102;2023-08-12T06:45:25;14.55;;;13.15;;
34212;SDS011;20477;51.390;8.102;2023-08-12T06:47:54;13.63;;;12.23;;
34212;SDS011;20477;51.390;8.102;2023-08-12T06:50:23;10.55;;;7.80;;
34212;SDS011;20477;51.390;8.102;2023-08-12T06:52:51;6.38;;;4.35;;
34212;SDS011;20477;51.390;8.102;2023-08-12T06:55:19;4.00;;;3.60;;
34212;SDS011;20477;51.390;8.102;2023-08-12T06:57:47;6.82;;;3.20;;
34212;SDS011;20477;51.390;8.102;2023-08-12T07:00:16;4.20;;;2.80;;
34212;SDS011;20477;51.390;8.102;2023-08-12T07:02:44;4.22;;;2.85;;
34212;SDS011;20477;51.390;8.102;2023-08-12T07:05:12;3.75;;;2.67;;
34212;SDS011;20477;51.390;8.102;2023-08-12T07:07:42;3.58;;;2.45;;
34212;SDS011;20477;51.390;8.102;2023-08-12T07:10:10;2.60;;;2.40;;
34212;SDS011;20477;51.390;8.102;2023-08-12T07:12:38;3.85;;;2.60;;
34212;SDS011;20477;51.390;8.102;2023-08-12T07:15:07;7.45;;;2.72;;
34212;SDS011;20477;51.390;8.102;2023-08-12T07:17:37;4.85;;;2.67;;
34212;SDS011;20477;51.390;8.102;2023-08-12T07:20:06;6.57;;;2.58;;
34212;SDS011;20477;51.390;8.102;2023-08-12T07:22:35;3.40;;;2.78;;
34212;SDS011;20477;51.390;8.102;2023-08-12T07:25:05;2.65;;;2.10;;
34212;SDS011;20477;51.390;8.102;2023-08-12T07:27:33;2.92;;;2.40;;
34212;SDS011;20477;51.390;8.102;2023-08-12T07:30:02;3.03;;;2.53;;
34212;SDS011;20477;51.390;8.102;2023-08-12T07:32:30;4.45;;;2.65;;
34212;SDS011;20477;51.390;8.102;2023-08-12T07:34:59;6.85;;;2.75;;
34212;SDS011;20477;51.390;8.102;2023-08-12T07:37:27;4.63;;;2.97;;
34212;SDS011;20477;51.390;8.102;2023-08-12T07:39:56;5.60;;;2.65;;
34212;SDS011;20477;51.390;8.102;2023-08-12T07:42:25;4.43;;;2.95;;
34212;SDS011;20477;51.390;8.102;2023-08-12T07:44:53;4.80;;;3.00;;
34212;SDS011;20477;51.390;8.102;2023-08-12T07:47:22;3.97;;;3.28;;
34212;SDS011;20477;51.390;8.102;2023-08-12T07:49:50;6.40;;;2.70;;
34212;SDS011;20477;51.390;8.102;2023-08-12T07:52:18;4.40;;;3.25;;
34212;SDS011;20477;51.390;8.102;2023-08-12T07:54:46;4.15;;;3.03;;
34212;SDS011;20477;51.390;8.102;2023-08-12T07:57:14;3.95;;;2.80;;
34212;SDS011;20477;51.390;8.102;2023-08-12T07:59:44;7.72;;;3.00;;
34212;SDS011;20477;51.390;8.102;2023-08-12T08:02:12;4.15;;;2.63;;
34212;SDS011;20477;51.390;8.102;2023-08-12T08:04:41;3.90;;;2.80;;
34212;SDS011;20477;51.390;8.102;2023-08-12T08:07:09;3.60;;;2.60;;
34212;SDS011;20477;51.390;8.102;2023-08-12T08:09:38;4.47;;;3.00;;
34212;SDS011;20477;51.390;8.102;2023-08-12T08:12:07;3.15;;;2.80;;
34212;SDS011;20477;51.390;8.102;2023-08-12T08:14:36;9.13;;;2.58;;
34212;SDS011;20477;51.390;8.102;2023-08-12T08:17:06;6.50;;;3.28;;
34212;SDS011;20477;51.390;8.102;2023-08-12T08:19:35;3.30;;;2.53;;
34212;SDS011;20477;51.390;8.102;2023-08-12T08:22:03;9.38;;;3.03;;
34212;SDS011;20477;51.390;8.102;2023-08-12T08:24:31;6.00;;;3.35;;
34212;SDS011;20477;51.390;8.102;2023-08-12T08:26:59;4.82;;;2.60;;
34212;SDS011;20477;51.390;8.102;2023-08-12T08:29:30;5.50;;;3.00;;
34212;SDS011;20477;51.390;8.102;2023-08-12T08:31:59;5.85;;;3.40;;
34212;SDS011;20477;51.390;8.102;2023-08-12T08:34:28;5.03;;;3.05;;
34212;SDS011;20477;51.390;8.102;2023-08-12T08:36:56;4.03;;;2.67;;
34212;SDS011;20477;51.390;8.102;2023-08-12T08:39:24;5.10;;;2.97;;
34212;SDS011;20477;51.390;8.102;2023-08-12T08:41:52;5.80;;;2.90;;
34212;SDS011;20477;51.390;8.102;2023-08-12T08:44:22;3.38;;;2.50;;
34212;SDS011;20477;51.390;8.102;2023-08-12T08:46:52;3.03;;;2.45;;
34212;SDS011;20477;51.390;8.102;2023-08-12T08:49:20;4.80;;;2.80;;
34212;SDS011;20477;51.390;8.102;2023-08-12T08:51:50;7.55;;;2.58;;
34212;SDS011;20477;51.390;8.102;2023-08-12T08:54:19;5.78;;;2.67;;
34212;SDS011;20477;51.390;8.102;2023-08-12T08:56:48;5.97;;;2.70;;
34212;SDS011;20477;51.390;8.102;2023-08-12T08:59:26;3.40;;;2.78;;
34212;SDS011;20477;51.390;8.102;2023-08-12T09:01:54;4.15;;;2.60;;
34212;SDS011;20477;51.390;8.102;2023-08-12T09:04:25;4.75;;;2.55;;
34212;SDS011;20477;51.390;8.102;2023-08-12T09:06:56;5.18;;;2.33;;
34212;SDS011;20477;51.390;8.102;2023-08-12T09:09:25;3.35;;;2.53;;
34212;SDS011;20477;51.390;8.102;2023-08-12T09:11:53;2.33;;;2.10;;
34212;SDS011;20477;51.390;8.102;2023-08-12T09:14:22;6.00;;;2.67;;
34212;SDS011;20477;51.390;8.102;2023-08-12T09:16:51;2.78;;;2.10;;
34212;SDS011;20477;51.390;8.102;2023-08-12T09:19:21;3.80;;;2.30;;
34212;SDS011;20477;51.390;8.102;2023-08-12T09:21:51;4.20;;;1.85;;
34212;SDS011;20477;51.390;8.102;2023-08-12T09:24:24;3.70;;;2.50;;
34212;SDS011;20477;51.390;8.102;2023-08-12T09:29:22;2.72;;;2.17;;
34212;SDS011;20477;51.390;8.102;2023-08-12T09:31:50;2.78;;;1.90;;
34212;SDS011;20477;51.390;8.102;2023-08-12T09:34:19;4.85;;;2.00;;
34212;SDS011;20477;51.390;8.102;2023-08-12T09:36:47;2.42;;;1.50;;
34212;SDS011;20477;51.390;8.102;2023-08-12T09:39:15;2.28;;;1.85;;
34212;SDS011;20477;51.390;8.102;2023-08-12T09:41:46;4.18;;;1.88;;
34212;SDS011;20477;51.390;8.102;2023-08-12T09:44:14;2.90;;;1.70;;
34212;SDS011;20477;51.390;8.102;2023-08-12T09:46:43;3.78;;;1.58;;
34212;SDS011;20477;51.390;8.102;2023-08-12T09:49:11;5.15;;;1.30;;
34212;SDS011;20477;51.390;8.102;2023-08-12T09:51:39;3.70;;;1.40;;
34212;SDS011;20477;51.390;8.102;2023-08-12T09:54:10;1.80;;;1.50;;
34212;SDS011;20477;51.390;8.102;2023-08-12T09:56:42;2.83;;;1.55;;
34212;SDS011;20477;51.390;8.102;2023-08-12T09:59:12;3.97;;;1.50;;
34212;SDS011;20477;51.390;8.102;2023-08-12T10:01:40;1.27;;;1.17;;
34212;SDS011;20477;51.390;8.102;2023-08-12T10:04:10;1.55;;;0.95;;
34212;SDS011;20477;51.390;8.102;2023-08-12T10:06:39;2.05;;;1.00;;
34212;SDS011;20477;51.390;8.102;2023-08-12T10:09:09;1.23;;;0.95;;
34212;SDS011;20477;51.390;8.102;2023-08-12T10:11:37;1.55;;;0.90;;
34212;SDS011;20477;51.390;8.102;2023-08-12T10:14:06;2.28;;;1.20;;
34212;SDS011;20477;51.390;8.102;2023-08-12T10:16:36;2.67;;;1.70;;
34212;SDS011;20477;51.390;8.102;2023-08-12T10:19:05;1.20;;;1.10;;
34212;SDS011;20477;51.390;8.102;2023-08-12T10:21:33;0.98;;;0.98;;
34212;SDS011;20477;51.390;8.102;2023-08-12T10:24:02;2.70;;;1.73;;
34212;SDS011;20477;51.390;8.102;2023-08-12T10:26:30;2.15;;;1.30;;
34212;SDS011;20477;51.390;8.102;2023-08-12T10:29:00;3.20;;;1.38;;
34212;SDS011;20477;51.390;8.102;2023-08-12T10:31:28;2.42;;;1.48;;
34212;SDS011;20477;51.390;8.102;2023-08-12T10:33:58;2.60;;;1.35;;
34212;SDS011;20477;51.390;8.102;2023-08-12T10:36:26;3.00;;;1.20;;
34212;SDS011;20477;51.390;8.102;2023-08-12T10:38:55;3.08;;;1.20;;
34212;SDS011;20477;51.390;8.102;2023-08-12T10:41:24;1.83;;;1.05;;
34212;SDS011;20477;51.390;8.102;2023-08-12T10:43:54;2.10;;;1.30;;
34212;SDS011;20477;51.390;8.102;2023-08-12T10:46:24;2.65;;;1.10;;
34212;SDS011;20477;51.390;8.102;2023-08-12T10:49:01;2.83;;;1.33;;
34212;SDS011;20477;51.390;8.102;2023-08-12T10:54:23;2.95;;;1.13;;
34212;SDS011;20477;51.390;8.102;2023-08-12T10:57:09;3.25;;;1.10;;
34212;SDS011;20477;51.390;8.102;2023-08-12T10:59:53;6.00;;;1.42;;
34212;SDS011;20477;51.390;8.102;2023-08-12T11:02:25;3.13;;;1.13;;
34212;SDS011;20477;51.390;8.102;2023-08-12T11:04:56;1.45;;;1.27;;
34212;SDS011;20477;51.390;8.102;2023-08-12T11:07:29;1.02;;;0.85;;
34212;SDS011;20477;51.390;8.102;2023-08-12T11:10:05;1.45;;;0.77;;
34212;SDS011;20477;51.390;8.102;2023-08-12T11:12:38;1.02;;;0.90;;
34212;SDS011;20477;51.390;8.102;2023-08-12T11:15:07;6.28;;;1.02;;
34212;SDS011;20477;51.390;8.102;2023-08-12T11:17:36;1.10;;;0.88;;
34212;SDS011;20477;51.390;8.102;2023-08-12T11:20:07;2.55;;;1.20;;
34212;SDS011;20477;51.390;8.102;2023-08-12T11:22:38;1.90;;;1.00;;
34212;SDS011;20477;51.390;8.102;2023-08-12T11:25:07;1.52;;;0.90;;
34212;SDS011;20477;51.390;8.102;2023-08-12T11:27:40;1.38;;;1.00;;
34212;SDS011;20477;51.390;8.102;2023-08-12T11:30:09;0.95;;;0.80;;
34212;SDS011;20477;51.390;8.102;2023-08-12T11:32:38;1.50;;;1.00;;
34212;SDS011;20477;51.390;8.102;2023-08-12T11:35:08;5.28;;;1.17;;
34212;SDS011;20477;51.390;8.102;2023-08-12T11:37:37;1.92;;;1.00;;
34212;SDS011;20477;51.390;8.102;2023-08-12T11:40:06;4.50;;;1.40;;
34212;SDS011;20477;51.390;8.102;2023-08-12T11:42:36;2.53;;;1.15;;
34212;SDS011;20477;51.390;8.102;2023-08-12T11:45:05;2.45;;;0.98;;
34212;SDS011;20477;51.390;8.102;2023-08-12T11:47:34;1.10;;;1.00;;
34212;SDS011;20477;51.390;8.102;2023-08-12T11:50:02;1.08;;;0.98;;
34212;SDS011;20477;51.390;8.102;2023-08-12T11:52:32;5.53;;;4.43;;
34212;SDS011;20477;51.390;8.102;2023-08-12T11:55:01;1.52;;;1.25;;
34212;SDS011;20477;51.390;8.102;2023-08-12T11:57:30;0.90;;;0.90;;
34212;SDS011;20477;51.390;8.102;2023-08-12T12:00:00;4.47;;;1.20;;
34212;SDS011;20477;51.390;8.102;2023-08-12T12:02:31;3.55;;;1.30;;
34212;SDS011;20477;51.390;8.102;2023-08-12T12:05:05;4.43;;;1.15;;
34212;SDS011;20477;51.390;8.102;2023-08-12T12:07:36;2.58;;;1.20;;
34212;SDS011;20477;51.390;8.102;2023-08-12T12:10:05;6.43;;;1.30;;
34212;SDS011;20477;51.390;8.102;2023-08-12T12:12:34;1.58;;;1.20;;
34212;SDS011;20477;51.390;8.102;2023-08-12T12:15:02;1.00;;;0.90;;
34212;SDS011;20477;51.390;8.102;2023-08-12T12:17:32;2.22;;;1.02;;
34212;SDS011;20477;51.390;8.102;2023-08-12T12:20:00;1.30;;;1.00;;
34212;SDS011;20477;51.390;8.102;2023-08-12T12:22:29;1.17;;;1.05;;
34212;SDS011;20477;51.390;8.102;2023-08-12T12:25:04;3.63;;;1.10;;
34212;SDS011;20477;51.390;8.102;2023-08-12T12:27:33;2.03;;;1.23;;
34212;SDS011;20477;51.390;8.102;2023-08-12T12:30:02;1.77;;;1.10;;
34212;SDS011;20477;51.390;8.102;2023-08-12T12:32:31;4.28;;;1.50;;
34212;SDS011;20477;51.390;8.102;2023-08-12T12:34:59;2.60;;;1.23;;
34212;SDS011;20477;51.390;8.102;2023-08-12T12:37:27;2.53;;;1.17;;
34212;SDS011;20477;51.390;8.102;2023-08-12T12:39:56;3.00;;;1.55;;
34212;SDS011;20477;51.390;8.102;2023-08-12T12:42:25;2.38;;;1.17;;
34212;SDS011;20477;51.390;8.102;2023-08-12T12:44:53;2.10;;;1.08;;
34212;SDS011;20477;51.390;8.102;2023-08-12T12:47:22;4.25;;;1.40;;
34212;SDS011;20477;51.390;8.102;2023-08-12T12:49:50;2.63;;;1.30;;
34212;SDS011;20477;51.390;8.102;2023-08-12T12:52:18;2.88;;;1.23;;
34212;SDS011;20477;51.390;8.102;2023-08-12T12:54:46;3.08;;;1.17;;
34212;SDS011;20477;51.390;8.102;2023-08-12T12:57:15;3.03;;;1.30;;
34212;SDS011;20477;51.390;8.102;2023-08-12T12:59:44;2.25;;;1.30;;
34212;SDS011;20477;51.390;8.102;2023-08-12T13:02:13;1.73;;;1.20;;
34212;SDS011;20477;51.390;8.102;2023-08-12T13:04:41;2.63;;;1.10;;
34212;SDS011;20477;51.390;8.102;2023-08-12T13:07:11;4.70;;;1.60;;
34212;SDS011;20477;51.390;8.102;2023-08-12T13:09:39;2.15;;;1.05;;
34212;SDS011;20477;51.390;8.102;2023-08-12T13:12:07;1.73;;;1.20;;
34212;SDS011;20477;51.390;8.102;2023-08-12T13:14:36;2.13;;;1.13;;
34212;SDS011;20477;51.390;8.102;2023-08-12T13:17:05;3.85;;;1.20;;
34212;SDS011;20477;51.390;8.102;2023-08-12T13:19:34;2.53;;;1.67;;
34212;SDS011;20477;51.390;8.102;2023-08-12T13:22:02;2.03;;;1.10;;
34212;SDS011;20477;51.390;8.102;2023-08-12T13:24:31;2.22;;;1.17;;
34212;SDS011;20477;51.390;8.102;2023-08-12T13:26:59;2.72;;;1.23;;
34212;SDS011;20477;51.390;8.102;2023-08-12T13:29:27;2.55;;;1.10;;
34212;SDS011;20477;51.390;8.102;2023-08-12T13:31:57;2.17;;;1.15;;
34212;SDS011;20477;51.390;8.102;2023-08-12T13:34:26;7.10;;;1.73;;
34212;SDS011;20477;51.390;8.102;2023-08-12T13:36:54;3.03;;;1.63;;
34212;SDS011;20477;51.390;8.102;2023-08-12T13:39:22;3.30;;;1.55;;
34212;SDS011;20477;51.390;8.102;2023-08-12T13:41:51;3.22;;;1.60;;
34212;SDS011;20477;51.390;8.102;2023-08-12T13:44:20;3.22;;;1.55;;
34212;SDS011;20477;51.390;8.102;2023-08-12T13:46:49;7.03;;;1.60;;
34212;SDS011;20477;51.390;8.102;2023-08-12T13:49:17;5.03;;;1.73;;
34212;SDS011;20477;51.390;8.102;2023-08-12T13:51:46;2.45;;;1.33;;
34212;SDS011;20477;51.390;8.102;2023-08-12T13:54:14;3.28;;;1.70;;
34212;SDS011;20477;51.390;8.102;2023-08-12T13:56:42;2.45;;;1.58;;
34212;SDS011;20477;51.390;8.102;2023-08-12T13:59:11;3.40;;;2.25;;
34212;SDS011;20477;51.390;8.102;2023-08-12T14:01:39;1.90;;;1.42;;
34212;SDS011;20477;51.390;8.102;2023-08-12T14:04:09;1.70;;;1.60;;
34212;SDS011;20477;51.390;8.102;2023-08-12T14:06:37;2.65;;;1.67;;
34212;SDS011;20477;51.390;8.102;2023-08-12T14:09:08;5.57;;;1.50;;
34212;SDS011;20477;51.390;8.102;2023-08-12T14:11:38;1.98;;;1.67;;
34212;SDS011;20477;51.390;8.102;2023-08-12T14:14:07;6.10;;;1.50;;
34212;SDS011;20477;51.390;8.102;2023-08-12T14:16:36;1.77;;;1.30;;
34212;SDS011;20477;51.390;8.102;2023-08-12T14:19:04;2.15;;;1.67;;
34212;SDS011;20477;51.390;8.102;2023-08-12T14:21:33;1.85;;;1.63;;
34212;SDS011;20477;51.390;8.102;2023-08-12T14:24:01;2.33;;;1.60;;
34212;SDS011;20477;51.390;8.102;2023-08-12T14:26:31;1.90;;;1.40;;
34212;SDS011;20477;51.390;8.102;2023-08-12T14:29:01;3.25;;;2.00;;
34212;SDS011;20477;51.390;8.102;2023-08-12T14:31:29;2.03;;;1.13;;
34212;SDS011;20477;51.390;8.102;2023-08-12T14:33:58;1.88;;;1.48;;
34212;SDS011;20477;51.390;8.102;2023-08-12T14:36:27;2.83;;;1.70;;
34212;SDS011;20477;51.390;8.102;2023-08-12T14:38:56;2.30;;;1.45;;
34212;SDS011;20477;51.390;8.102;2023-08-12T14:41:24;2.05;;;1.80;;
34212;SDS011;20477;51.390;8.102;2023-08-12T14:43:54;3.70;;;1.63;;
34212;SDS011;20477;51.390;8.102;2023-08-12T14:46:23;3.33;;;1.98;;
34212;SDS011;20477;51.390;8.102;2023-08-12T14:48:51;2.33;;;1.85;;
34212;SDS011;20477;51.390;8.102;2023-08-12T14:51:20;2.50;;;1.38;;